Time;durP1;ratioP1;P1;durP2;ratioP2;P2;SDS_P1;SDS_P2;PMS_P1;PMS_P2;Temp;Humidity;BMP_temperature;BMP_pressure;BME280_temperature;BME280_humidity;BME280_pressure;Samples;Min_cycle;Max_cycle;Signal;HPM_P1;HPM_P2
2023/02/04 00:01:58;;;;;;;;;;;;;;;4.73;47.51;99613.66;5093903;28;19965;-42
2023/02/04 00:04:23;;;;;;;;;;;;;;;4.64;47.50;99609.38;5093309;28;20022;-42
2023/02/04 00:06:49;;;;;;;;;;;;;;;4.90;46.60;99607.34;5094119;28;19951;-41
2023/02/04 00:09:15;;;;;;;;;;;;;;;4.71;47.84;99610.38;5093531;28;20296;-42
2023/02/04 00:11:40;;;;;;;;;;;;;;;4.70;47.93;99603.44;5093648;28;19912;-41
2023/02/04 00:14:06;;;;;;;;;;;;;;;4.85;47.66;99599.09;5093398;28;19919;-42
2023/02/04 00:16:31;;;;;;;;;;;;;;;4.92;47.35;99590.53;5092201;28;19955;-41
2023/02/04 00:18:56;;;;;;;;;;;;;;;4.60;47.64;99587.81;5093760;28;19951;-41
2023/02/04 00:21:22;;;;;;;;;;;;;;;4.53;47.85;99581.56;5093444;28;19924;-41
2023/02/04 00:23:48;;;;;;;;;;;;;;;4.67;47.98;99588.78;5093762;28;20337;-42
2023/02/04 00:26:13;;;;;;;;;;;;;;;4.63;48.00;99587.47;5093779;28;19916;-41
2023/02/04 00:28:39;;;;;;;;;;;;;;;4.64;47.50;99585.66;5093833;28;19922;-41
2023/02/04 00:31:04;;;;;;;;;;;;;;;4.60;47.87;99582.53;5093517;28;20364;-41
2023/02/04 00:33:30;;;;;;;;;;;;;;;4.55;47.77;99578.75;5093883;28;19912;-41
2023/02/04 00:35:55;;;;;;;;;;;;;;;4.76;47.43;99576.41;5092609;28;19912;-41
2023/02/04 00:38:21;;;;;;;;;;;;;;;4.96;47.02;99574.19;5093172;28;20387;-41
2023/02/04 00:40:47;;;;;;;;;;;;;;;4.64;47.00;99575.94;5093441;28;20022;-41
2023/02/04 00:43:12;;;;;;;;;;;;;;;4.55;47.47;99573.50;5093624;28;19998;-42
2023/02/04 00:45:37;;;;;;;;;;;;;;;4.58;47.64;99570.53;5093156;28;20375;-42
2023/02/04 00:48:02;;;;;;;;;;;;;;;4.59;47.42;99578.28;5093316;28;19919;-42
2023/02/04 00:50:28;;;;;;;;;;;;;;;4.65;47.59;99574.94;5093085;28;20346;-42
2023/02/04 00:52:53;;;;;;;;;;;;;;;4.91;48.54;99571.22;5093180;28;19912;-42
2023/02/04 00:55:18;;;;;;;;;;;;;;;5.26;48.04;99572.56;5093100;28;19912;-42
2023/02/04 00:57:46;;;;;;;;;;;;;;;5.29;47.18;99564.31;5093137;28;19999;-42
2023/02/04 01:00:12;;;;;;;;;;;;;;;5.19;47.94;99561.06;5092933;28;19918;-42
2023/02/04 01:02:39;;;;;;;;;;;;;;;4.93;48.02;99553.44;5092812;28;20282;-42
2023/02/04 01:05:04;;;;;;;;;;;;;;;5.28;48.12;99551.28;5092887;28;20345;-42
2023/02/04 01:07:30;;;;;;;;;;;;;;;5.18;47.89;99550.66;5092684;28;19912;-42
2023/02/04 01:09:55;;;;;;;;;;;;;;;5.15;47.92;99537.84;5092630;28;19947;-42
2023/02/04 01:12:21;;;;;;;;;;;;;;;5.40;46.86;99535.88;5092884;28;19912;-42
2023/02/04 01:14:47;;;;;;;;;;;;;;;5.30;46.79;99530.81;5092364;28;19962;-42
2023/02/04 01:17:12;;;;;;;;;;;;;;;5.23;46.49;99521.97;5092182;28;19920;-42
2023/02/04 01:19:37;;;;;;;;;;;;;;;5.32;46.16;99512.19;5092450;28;19943;-42
2023/02/04 01:22:02;;;;;;;;;;;;;;;5.26;47.05;99511.88;5092350;28;19964;-42
2023/02/04 01:24:28;;;;;;;;;;;;;;;4.92;48.01;99500.88;5092461;28;19912;-42
2023/02/04 01:26:53;;;;;;;;;;;;;;;4.56;48.14;99489.00;5092079;28;19912;-42
2023/02/04 01:29:18;;;;;;;;;;;;;;;4.94;47.08;99489.16;5092225;28;19912;-42
2023/02/04 01:31:43;;;;;;;;;;;;;;;5.07;47.00;99476.22;5092582;28;19919;-42
2023/02/04 01:34:09;;;;;;;;;;;;;;;5.00;47.81;99469.16;5092344;28;20002;-42
2023/02/04 01:36:34;;;;;;;;;;;;;;;4.77;48.13;99462.03;5092377;28;20000;-42
2023/02/04 01:38:59;;;;;;;;;;;;;;;4.94;48.22;99454.88;5092101;28;19916;-42
2023/02/04 01:41:25;;;;;;;;;;;;;;;4.79;48.85;99443.41;5092060;28;20382;-42
2023/02/04 01:43:51;;;;;;;;;;;;;;;4.82;47.70;99435.97;5092028;28;19912;-42
2023/02/04 01:46:16;;;;;;;;;;;;;;;4.97;47.08;99430.78;5091768;28;19922;-42
2023/02/04 01:48:41;;;;;;;;;;;;;;;5.13;46.78;99431.69;5092289;28;19943;-42
2023/02/04 01:51:11;;;;;;;;;;;;;;;5.01;46.98;99434.72;5092224;28;20395;-42
2023/02/04 01:53:37;;;;;;;;;;;;;;;4.99;47.35;99434.06;5092047;28;20280;-42
2023/02/04 01:56:19;;;;;;;;;;;;;;;4.79;47.39;99432.88;5091768;28;20341;-42
2023/02/04 01:58:45;;;;;;;;;;;;;;;4.81;48.30;99433.50;5092119;28;20360;-42
2023/02/04 02:01:12;;;;;;;;;;;;;;;4.94;48.71;99428.50;5091811;28;19912;-42
2023/02/04 02:03:38;;;;;;;;;;;;;;;5.01;48.52;99426.00;5092194;28;19935;-42
2023/02/04 02:06:03;;;;;;;;;;;;;;;5.27;48.05;99425.63;5091563;28;20360;-43
2023/02/04 02:08:28;;;;;;;;;;;;;;;5.00;48.12;99425.16;5091745;28;19995;-42
2023/02/04 02:10:53;;;;;;;;;;;;;;;4.89;48.81;99415.00;5091738;28;19919;-42
2023/02/04 02:13:19;;;;;;;;;;;;;;;4.70;48.46;99413.63;5091784;28;19969;-42
2023/02/04 02:15:45;;;;;;;;;;;;;;;4.70;48.21;99414.47;5091634;28;19944;-42
2023/02/04 02:18:10;;;;;;;;;;;;;;;4.62;48.33;99413.69;5092063;28;19928;-42
2023/02/04 02:20:36;;;;;;;;;;;;;;;4.82;48.29;99408.81;5091105;28;19920;-42
2023/02/04 02:23:22;;;;;;;;;;;;;;;4.81;48.28;99402.69;5091207;28;20060;-42
2023/02/04 02:25:48;;;;;;;;;;;;;;;4.86;48.11;99407.47;5091224;28;20004;-42
2023/02/04 02:28:14;;;;;;;;;;;;;;;4.78;48.32;99402.22;5097038;28;19973;-42
2023/02/04 02:30:40;;;;;;;;;;;;;;;4.80;47.87;99393.16;5098107;28;20014;-42
2023/02/04 02:33:06;;;;;;;;;;;;;;;4.73;48.42;99389.56;5098145;28;19923;-42
2023/02/04 02:35:32;;;;;;;;;;;;;;;4.78;48.24;99396.94;5098748;28;19912;-42
2023/02/04 02:37:57;;;;;;;;;;;;;;;4.88;48.10;99389.66;5098311;28;20393;-42
2023/02/04 02:40:23;;;;;;;;;;;;;;;4.59;48.92;99388.50;5098166;28;19912;-42
2023/02/04 02:42:50;;;;;;;;;;;;;;;4.82;48.53;99371.91;5098115;28;19918;-42
2023/02/04 02:45:20;;;;;;;;;;;;;;;4.58;48.62;99365.75;5098093;28;19916;-42
2023/02/04 02:47:45;;;;;;;;;;;;;;;4.82;48.49;99366.63;5097911;28;19961;-42
2023/02/04 02:50:14;;;;;;;;;;;;;;;4.59;48.80;99329.69;5097883;28;19912;-42
2023/02/04 02:52:39;;;;;;;;;;;;;;;4.58;49.36;99357.03;5098130;28;19923;-42
2023/02/04 02:55:11;;;;;;;;;;;;;;;4.97;48.60;99359.59;5097930;28;19912;-42
2023/02/04 02:57:37;;;;;;;;;;;;;;;5.02;48.85;99362.50;5098125;28;19924;-42
2023/02/04 03:00:09;;;;;;;;;;;;;;;4.98;49.01;99357.75;5097639;28;19995;-42
2023/02/04 03:02:35;;;;;;;;;;;;;;;4.74;49.36;99350.84;5097900;28;20293;-42
2023/02/04 03:05:00;;;;;;;;;;;;;;;4.97;49.00;99341.13;5097918;28;19927;-42
2023/02/04 03:07:25;;;;;;;;;;;;;;;4.70;48.99;99332.75;5097778;28;19913;-42
2023/02/04 03:09:52;;;;;;;;;;;;;;;4.46;49.75;99325.00;5097951;28;19912;-42
2023/02/04 03:12:18;;;;;;;;;;;;;;;4.70;49.30;99322.22;5097752;28;20413;-43
2023/02/04 03:14:43;;;;;;;;;;;;;;;4.52;50.02;99321.66;5097808;28;20422;-42
2023/02/04 03:17:09;;;;;;;;;;;;;;;4.52;49.98;99320.84;5097764;28;19912;-42
2023/02/04 03:19:35;;;;;;;;;;;;;;;4.27;50.54;99319.16;5097248;28;19996;-43
2023/02/04 03:22:01;;;;;;;;;;;;;;;4.25;49.63;99310.63;5097427;28;20360;-42
2023/02/04 03:24:27;;;;;;;;;;;;;;;4.30;49.59;99310.94;5097173;28;19912;-43
2023/02/04 03:26:52;;;;;;;;;;;;;;;4.45;49.14;99323.34;5097683;28;19918;-42
2023/02/04 03:29:17;;;;;;;;;;;;;;;4.52;48.52;99315.59;5097260;28;20385;-42
2023/02/04 03:31:43;;;;;;;;;;;;;;;4.52;49.61;99318.22;5097025;28;20014;-42
2023/02/04 03:34:08;;;;;;;;;;;;;;;4.60;49.46;99323.44;5097655;28;20087;-42
2023/02/04 03:36:33;;;;;;;;;;;;;;;4.73;49.58;99314.94;5097516;28;19920;-42
2023/02/04 03:38:59;;;;;;;;;;;;;;;4.66;49.73;99315.66;5094925;28;19920;-42
2023/02/04 03:41:24;;;;;;;;;;;;;;;4.46;50.31;99319.72;5094290;28;19993;-43
2023/02/04 03:43:49;;;;;;;;;;;;;;;4.41;50.53;99316.78;5094305;28;19961;-43
2023/02/04 03:46:15;;;;;;;;;;;;;;;4.56;50.69;99309.78;5094440;28;19923;-42
2023/02/04 03:48:40;;;;;;;;;;;;;;;4.70;50.32;99297.66;5094292;28;20271;-43
2023/02/04 03:51:05;;;;;;;;;;;;;;;4.73;50.20;99299.94;5094146;28;19912;-42
2023/02/04 03:53:30;;;;;;;;;;;;;;;4.79;50.15;99290.50;5094334;28;19912;-41
2023/02/04 03:55:56;;;;;;;;;;;;;;;4.90;50.06;99293.53;5094114;28;20388;-42
2023/02/04 03:58:21;;;;;;;;;;;;;;;4.74;50.05;99274.38;5094206;28;19912;-41
2023/02/04 04:00:46;;;;;;;;;;;;;;;4.51;50.80;99275.22;5093788;28;20407;-42
2023/02/04 04:03:11;;;;;;;;;;;;;;;4.62;50.35;99274.00;5093991;28;19912;-43
2023/02/04 04:05:37;;;;;;;;;;;;;;;4.64;50.51;99264.09;5093743;28;19969;-41
2023/02/04 04:08:02;;;;;;;;;;;;;;;4.64;50.04;99266.72;5094221;28;19999;-41
2023/02/04 04:10:28;;;;;;;;;;;;;;;4.72;49.73;99256.09;5093887;28;19919;-41
2023/02/04 04:12:53;;;;;;;;;;;;;;;4.75;49.86;99257.59;5093904;28;20303;-41
2023/02/04 04:15:18;;;;;;;;;;;;;;;4.77;49.69;99247.69;5093837;28;19934;-41
2023/02/04 04:17:44;;;;;;;;;;;;;;;4.60;50.49;99253.06;5093443;28;20390;-41
2023/02/04 04:20:09;;;;;;;;;;;;;;;4.85;49.50;99247.59;5093191;28;19924;-41
2023/02/04 04:22:35;;;;;;;;;;;;;;;4.89;49.54;99236.53;5093296;28;20013;-41
2023/02/04 04:25:00;;;;;;;;;;;;;;;4.52;50.42;99234.69;5093146;28;20392;-41
2023/02/04 04:27:25;;;;;;;;;;;;;;;4.60;50.74;99236.44;5093088;28;20384;-41
2023/02/04 04:29:50;;;;;;;;;;;;;;;4.24;51.33;99251.03;5093340;28;19916;-41
2023/02/04 04:32:16;;;;;;;;;;;;;;;4.23;51.71;99244.13;5092886;28;20392;-41
2023/02/04 04:34:41;;;;;;;;;;;;;;;4.30;51.49;99249.50;5092519;28;20011;-41
2023/02/04 04:37:06;;;;;;;;;;;;;;;4.26;52.08;99246.38;5092487;28;19916;-41
2023/02/04 04:39:32;;;;;;;;;;;;;;;4.45;51.47;99258.28;5092104;28;20426;-41
2023/02/04 04:41:57;;;;;;;;;;;;;;;4.35;51.69;99257.72;5092537;28;19966;-41
2023/02/04 04:44:22;;;;;;;;;;;;;;;4.30;51.21;99252.13;5092429;28;20012;-42
2023/02/04 04:46:47;;;;;;;;;;;;;;;4.31;51.33;99228.25;5093150;28;19993;-41
2023/02/04 04:49:13;;;;;;;;;;;;;;;4.30;51.37;99231.91;5092712;28;19964;-41
2023/02/04 04:51:38;;;;;;;;;;;;;;;4.31;51.17;99230.06;5091807;28;19916;-41
2023/02/04 04:54:03;;;;;;;;;;;;;;;4.11;51.82;99233.19;5092750;28;19912;-41
2023/02/04 04:56:28;;;;;;;;;;;;;;;4.19;51.71;99234.09;5092564;28;19912;-41
2023/02/04 04:58:54;;;;;;;;;;;;;;;4.26;52.46;99222.69;5092373;28;20020;-41
2023/02/04 05:01:21;;;;;;;;;;;;;;;4.40;51.75;99207.94;5092383;28;19916;-41
2023/02/04 05:03:46;;;;;;;;;;;;;;;4.47;51.34;99214.16;5092465;28;19919;-42
2023/02/04 05:06:12;;;;;;;;;;;;;;;4.54;51.65;99216.91;5092290;28;19917;-43
2023/02/04 05:08:37;;;;;;;;;;;;;;;4.55;51.94;99226.44;5092433;28;20003;-43
2023/02/04 05:11:02;;;;;;;;;;;;;;;4.78;50.91;99220.31;5092077;28;20245;-42
2023/02/04 05:13:28;;;;;;;;;;;;;;;4.37;52.03;99224.09;5092436;28;19912;-42
2023/02/04 05:15:53;;;;;;;;;;;;;;;4.50;52.38;99223.53;5092402;28;19965;-42
2023/02/04 05:18:18;;;;;;;;;;;;;;;4.48;52.36;99230.78;5092244;28;20031;-41
2023/02/04 05:20:43;;;;;;;;;;;;;;;4.35;52.23;99225.28;5091985;28;19924;-42
2023/02/04 05:23:09;;;;;;;;;;;;;;;4.36;52.49;99222.47;5091874;28;19916;-43
2023/02/04 05:25:34;;;;;;;;;;;;;;;4.53;52.42;99212.59;5091998;28;19938;-43
2023/02/04 05:27:59;;;;;;;;;;;;;;;4.56;52.59;99212.25;5092412;28;19966;-42
2023/02/04 05:30:28;;;;;;;;;;;;;;;4.30;53.48;99208.19;5092122;28;19918;-42
2023/02/04 05:32:53;;;;;;;;;;;;;;;4.46;52.82;99207.25;5091918;28;20368;-41
2023/02/04 05:35:18;;;;;;;;;;;;;;;4.28;53.03;99215.47;5077221;28;20011;-41
2023/02/04 05:37:43;;;;;;;;;;;;;;;4.39;52.78;99213.41;5076449;28;19916;-41
2023/02/04 05:40:09;;;;;;;;;;;;;;;4.33;52.53;99206.19;5090172;28;19912;-41
2023/02/04 05:42:34;;;;;;;;;;;;;;;4.20;52.98;99207.59;5092103;28;19912;-41
2023/02/04 05:45:00;;;;;;;;;;;;;;;4.24;52.56;99213.31;5092280;28;19916;-42
2023/02/04 05:47:25;;;;;;;;;;;;;;;4.60;51.74;99208.28;5091739;28;20316;-42
2023/02/04 05:49:50;;;;;;;;;;;;;;;4.56;51.64;99208.81;5091199;28;19972;-42
2023/02/04 05:52:15;;;;;;;;;;;;;;;4.74;51.44;99217.22;5091681;28;20371;-42
2023/02/04 05:54:41;;;;;;;;;;;;;;;4.75;50.53;99210.13;5092013;28;20050;-42
2023/02/04 05:57:06;;;;;;;;;;;;;;;4.73;50.24;99215.59;5092193;28;20364;-41
2023/02/04 05:59:31;;;;;;;;;;;;;;;4.72;50.82;99216.56;5091811;28;19912;-41
2023/02/04 06:01:56;;;;;;;;;;;;;;;4.77;50.11;99221.31;5102182;28;20341;-43
2023/02/04 06:04:22;;;;;;;;;;;;;;;4.49;50.54;99227.13;5093648;28;19916;-42
2023/02/04 06:06:47;;;;;;;;;;;;;;;4.72;50.42;99216.56;5091840;28;19916;-42
2023/02/04 06:09:12;;;;;;;;;;;;;;;4.75;50.04;99228.59;5091423;28;20378;-42
2023/02/04 06:11:38;;;;;;;;;;;;;;;4.59;50.34;99227.72;5091263;28;19973;-36
2023/02/04 06:14:03;;;;;;;;;;;;;;;4.71;49.78;99225.50;5090936;28;20299;-36
2023/02/04 06:16:28;;;;;;;;;;;;;;;4.82;49.50;99224.25;5091720;28;20268;-36
2023/02/04 06:18:54;;;;;;;;;;;;;;;4.71;50.12;99225.50;5091077;28;20331;-36
2023/02/04 06:21:19;;;;;;;;;;;;;;;4.76;50.04;99209.13;5090912;28;20380;-36
2023/02/04 06:23:44;;;;;;;;;;;;;;;5.24;49.34;99204.38;5091310;28;19947;-36
2023/02/04 06:26:10;;;;;;;;;;;;;;;5.19;50.01;99206.72;5091324;28;20288;-36
2023/02/04 06:28:35;;;;;;;;;;;;;;;4.98;50.16;99228.53;5091092;28;19954;-36
2023/02/04 06:31:01;;;;;;;;;;;;;;;5.03;50.70;99229.63;5091312;28;19913;-36
2023/02/04 06:33:26;;;;;;;;;;;;;;;4.97;50.42;99224.25;5091143;28;20081;-36
2023/02/04 06:35:51;;;;;;;;;;;;;;;5.09;50.19;99241.28;5091401;28;20363;-36
2023/02/04 06:38:17;;;;;;;;;;;;;;;5.17;50.32;99232.47;5091401;28;19920;-36
2023/02/04 06:40:42;;;;;;;;;;;;;;;7.16;69.59;99238.25;5091375;28;20415;-37
2023/02/04 06:43:07;;;;;;;;;;;;;;;8.32;57.25;99229.56;5093938;28;20026;-36
2023/02/04 06:45:32;;;;;;;;;;;;;;;9.28;63.43;99236.38;5108795;28;19920;-36
2023/02/04 06:47:58;;;;;;;;;;;;;;;9.22;49.81;99243.31;5102234;28;19912;-37
2023/02/04 06:50:23;;;;;;;;;;;;;;;9.17;50.56;99229.84;5091400;28;19951;-35
2023/02/04 06:52:48;;;;;;;;;;;;;;;9.64;44.77;99238.50;5091706;28;19912;-36
2023/02/04 06:55:14;;;;;;;;;;;;;;;9.78;41.32;99239.28;5091029;28;19913;-36
2023/02/04 06:57:40;;;;;;;;;;;;;;;9.31;41.36;99242.06;5091149;28;19912;-36
2023/02/04 07:00:06;;;;;;;;;;;;;;;8.07;43.74;99246.03;5090653;28;19912;-36
2023/02/04 07:02:31;;;;;;;;;;;;;;;7.37;45.74;99248.78;5090652;28;19969;-35
2023/02/04 07:04:59;;;;;;;;;;;;;;;7.08;45.91;99243.69;5090529;28;19924;-36
2023/02/04 07:07:24;;;;;;;;;;;;;;;6.64;48.51;99249.06;5090791;28;20377;-36
2023/02/04 07:09:49;;;;;;;;;;;;;;;6.45;48.11;99263.75;5089346;28;20384;-36
2023/02/04 07:12:15;;;;;;;;;;;;;;;6.52;48.08;99262.97;5090391;28;19963;-36
2023/02/04 07:14:40;;;;;;;;;;;;;;;6.73;47.42;99267.44;5091280;28;19932;-36
2023/02/04 07:17:05;;;;;;;;;;;;;;;7.38;46.80;99266.28;5092765;28;19912;-37
2023/02/04 07:19:30;;;;;;;;;;;;;;;7.18;46.89;99258.22;5094693;28;19949;-37
2023/02/04 07:21:56;;;;;;;;;;;;;;;6.93;46.72;99251.72;5092380;28;19923;-37
2023/02/04 07:24:22;;;;;;;;;;;;;;;6.77;47.02;99256.28;5092962;28;19919;-37
2023/02/04 07:26:47;;;;;;;;;;;;;;;6.52;48.09;99265.63;5092967;28;19923;-36
2023/02/04 07:29:12;;;;;;;;;;;;;;;6.62;47.92;99256.34;5093019;28;19912;-37
2023/02/04 07:31:38;;;;;;;;;;;;;;;6.30;48.91;99262.13;5093970;28;19911;-37
2023/02/04 07:34:03;;;;;;;;;;;;;;;6.35;49.04;99254.47;5093328;28;19919;-37
2023/02/04 07:36:28;;;;;;;;;;;;;;;6.49;49.93;99253.56;5092583;28;19926;-38
2023/02/04 07:38:53;;;;;;;;;;;;;;;6.63;49.78;99263.28;5091837;28;19919;-35
2023/02/04 07:41:19;;;;;;;;;;;;;;;6.78;49.08;99260.56;5092604;28;19961;-36
2023/02/04 07:43:45;;;;;;;;;;;;;;;6.64;50.17;99254.34;5092815;28;20421;-36
2023/02/04 07:46:10;;;;;;;;;;;;;;;6.82;50.59;99250.44;5092370;28;20024;-37
2023/02/04 07:48:35;;;;;;;;;;;;;;;6.83;51.14;99246.75;5093231;28;19920;-36
2023/02/04 07:51:01;;;;;;;;;;;;;;;7.07;51.59;99245.53;5093255;28;19919;-36
2023/02/04 07:53:26;;;;;;;;;;;;;;;7.56;50.81;99230.56;5092543;28;19969;-37
2023/02/04 07:55:51;;;;;;;;;;;;;;;7.93;49.84;99216.03;5093498;28;20015;-35
2023/02/04 07:58:17;;;;;;;;;;;;;;;8.67;48.14;99216.19;5093474;28;20014;-35
2023/02/04 08:00:42;;;;;;;;;;;;;;;8.37;48.69;99205.94;5093679;28;20380;-36
2023/02/04 08:03:07;;;;;;;;;;;;;;;8.84;47.80;99200.69;5093688;28;19950;-36
2023/02/04 08:05:32;;;;;;;;;;;;;;;9.44;46.82;99201.38;5093192;28;19923;-37
2023/02/04 08:07:58;;;;;;;;;;;;;;;9.75;45.71;99205.97;5093322;28;20367;-37
2023/02/04 08:10:23;;;;;;;;;;;;;;;10.23;44.72;99201.25;5093234;28;20029;-37
2023/02/04 08:12:48;;;;;;;;;;;;;;;9.93;44.95;99193.81;5092809;28;19923;-37
2023/02/04 08:15:13;;;;;;;;;;;;;;;9.51;45.77;99196.06;5081378;28;20014;-36
2023/02/04 08:17:39;;;;;;;;;;;;;;;10.23;45.36;99186.09;5081204;28;19920;-37
2023/02/04 08:20:04;;;;;;;;;;;;;;;10.62;43.97;99191.34;5083003;28;19920;-37
2023/02/04 08:22:29;;;;;;;;;;;;;;;10.59;44.04;99181.97;5080703;28;19916;-37
2023/02/04 08:24:55;;;;;;;;;;;;;;;10.16;45.39;99172.81;5083035;28;19935;-37
2023/02/04 08:27:20;;;;;;;;;;;;;;;10.75;44.41;99169.97;5079928;28;19932;-37
2023/02/04 08:29:45;;;;;;;;;;;;;;;10.96;43.71;99164.22;5079686;28;20446;-37
2023/02/04 08:32:12;;;;;;;;;;;;;;;11.32;43.28;99172.47;5082072;28;20336;-37
2023/02/04 08:34:37;;;;;;;;;;;;;;;11.48;42.52;99160.38;5080688;28;20384;-37
2023/02/04 08:37:03;;;;;;;;;;;;;;;11.88;41.37;99151.88;5082054;28;19916;-37
2023/02/04 08:39:28;;;;;;;;;;;;;;;11.21;42.80;99141.25;5081580;28;19913;-35
2023/02/04 08:41:53;;;;;;;;;;;;;;;11.26;42.32;99139.53;5081776;28;20383;-36
2023/02/04 08:44:19;;;;;;;;;;;;;;;11.14;42.29;99136.00;5082128;28;19912;-36
2023/02/04 08:46:44;;;;;;;;;;;;;;;10.95;41.33;99137.84;5082714;28;20280;-36
2023/02/04 08:49:09;;;;;;;;;;;;;;;10.88;41.31;99137.91;5090219;28;19980;-36
2023/02/04 08:51:34;;;;;;;;;;;;;;;10.92;40.43;99147.06;5091405;28;20304;-36
2023/02/04 08:54:00;;;;;;;;;;;;;;;11.35;40.39;99143.53;5092319;28;20003;-37
2023/02/04 08:56:25;;;;;;;;;;;;;;;12.08;38.51;99141.78;5090934;28;19916;-36
2023/02/04 08:58:53;;;;;;;;;;;;;;;11.76;37.89;99153.69;5092356;28;19916;-36
2023/02/04 09:01:19;;;;;;;;;;;;;;;11.35;39.20;99148.06;5091778;28;20002;-36
2023/02/04 09:03:44;;;;;;;;;;;;;;;11.58;38.76;99157.22;5091962;28;19954;-36
2023/02/04 09:06:09;;;;;;;;;;;;;;;11.92;37.86;99143.25;5091399;28;20327;-39
2023/02/04 09:08:35;;;;;;;;;;;;;;;11.73;38.36;99154.97;5091382;28;20281;-36
2023/02/04 09:11:00;;;;;;;;;;;;;;;11.86;37.29;99161.97;5090800;28;20526;-36
2023/02/04 09:13:26;;;;;;;;;;;;;;;11.90;37.81;99156.00;5091595;28;19912;-37
2023/02/04 09:15:51;;;;;;;;;;;;;;;12.52;36.84;99152.19;5091965;28;19915;-36
2023/02/04 09:18:18;;;;;;;;;;;;;;;12.27;36.83;99155.06;5091230;28;19912;-38
2023/02/04 09:20:44;;;;;;;;;;;;;;;11.61;37.07;99159.41;5090528;28;19920;-36
2023/02/04 09:23:11;;;;;;;;;;;;;;;11.44;38.26;99130.75;5091165;28;19923;-36
2023/02/04 09:25:40;;;;;;;;;;;;;;;11.18;38.61;99131.06;5090851;28;19916;-37
2023/02/04 09:28:05;;;;;;;;;;;;;;;10.99;38.83;99130.22;5090833;28;19912;-37
2023/02/04 09:30:31;;;;;;;;;;;;;;;11.32;38.00;99125.31;5090358;28;19916;-37
2023/02/04 09:32:56;;;;;;;;;;;;;;;12.04;37.90;99118.47;5090656;28;19912;-38
2023/02/04 09:35:21;;;;;;;;;;;;;;;11.45;37.40;99116.38;5090602;28;19923;-36
2023/02/04 09:37:47;;;;;;;;;;;;;;;11.73;37.79;99112.31;5090059;28;19947;-36
2023/02/04 09:40:17;;;;;;;;;;;;;;;11.81;37.15;99104.00;5090411;28;20439;-37
2023/02/04 09:42:43;;;;;;;;;;;;;;;12.34;36.40;99113.09;5090800;28;19962;-36
2023/02/04 09:45:14;;;;;;;;;;;;;;;12.19;37.02;99104.72;5090490;28;19916;-37
2023/02/04 09:47:40;;;;;;;;;;;;;;;12.25;37.04;99103.78;5090445;28;19916;-37
2023/02/04 09:50:08;;;;;;;;;;;;;;;12.31;36.74;99082.31;5090814;28;20326;-37
2023/02/04 09:52:33;;;;;;;;;;;;;;;12.06;36.70;99090.53;5090595;28;19943;-37
2023/02/04 09:54:59;;;;;;;;;;;;;;;11.24;38.29;99088.34;5090371;28;19959;-37
2023/02/04 09:57:24;;;;;;;;;;;;;;;10.92;39.33;99096.47;5077192;28;19961;-36
2023/02/04 09:59:50;;;;;;;;;;;;;;;10.64;39.56;99088.19;5070482;28;19912;-36
2023/02/04 10:02:33;;;;;;;;;;;;;;;11.05;39.43;99086.75;5070190;28;19920;-36
2023/02/04 10:04:59;;;;;;;;;;;;;;;11.09;38.45;99078.06;5070300;28;19916;-36
2023/02/04 10:07:26;;;;;;;;;;;;;;;10.69;39.87;99078.50;5070054;28;19921;-37
2023/02/04 10:09:53;;;;;;;;;;;;;;;10.74;39.50;99088.50;5079187;28;19922;-36
2023/02/04 10:12:19;;;;;;;;;;;;;;;11.42;38.00;99079.50;5089939;28;19920;-36
2023/02/04 10:14:44;;;;;;;;;;;;;;;10.89;39.58;99065.00;5089946;28;19916;-36
2023/02/04 10:17:10;;;;;;;;;;;;;;;11.00;39.85;99070.59;5090006;28;19912;-37
2023/02/04 10:19:35;;;;;;;;;;;;;;;11.19;38.47;99069.56;5089876;28;19924;-36
2023/02/04 10:22:02;;;;;;;;;;;;;;;11.01;38.66;99065.06;5089879;28;19924;-36
2023/02/04 10:24:29;;;;;;;;;;;;;;;11.10;38.98;99062.91;5090102;28;20424;-38
2023/02/04 10:27:05;;;;;;;;;;;;;;;11.28;38.96;99070.06;5090088;28;19920;-36
2023/02/04 10:29:30;;;;;;;;;;;;;;;11.98;37.48;99058.06;5090355;28;19912;-36
2023/02/04 10:31:55;;;;;;;;;;;;;;;11.43;38.52;99065.16;5090258;28;19984;-36
2023/02/04 10:34:22;;;;;;;;;;;;;;;11.27;38.58;99065.78;5090266;28;20007;-38
2023/02/04 10:36:52;;;;;;;;;;;;;;;10.91;39.59;99057.59;5089744;28;19919;-38
2023/02/04 10:39:19;;;;;;;;;;;;;;;11.53;38.72;99053.97;5089882;28;19912;-36
2023/02/04 10:41:49;;;;;;;;;;;;;;;11.62;38.56;99049.94;5090029;28;19912;-36
2023/02/04 10:44:16;;;;;;;;;;;;;;;10.94;39.98;99041.16;5090129;28;19912;-36
2023/02/04 10:46:41;;;;;;;;;;;;;;;10.97;39.10;99039.94;5074837;28;19977;-36
2023/02/04 10:49:17;;;;;;;;;;;;;;;11.69;38.83;99031.16;5073045;28;19913;-36
2023/02/04 10:51:42;;;;;;;;;;;;;;;10.48;39.93;99025.72;5079401;28;20015;-37
2023/02/04 10:54:29;;;;;;;;;;;;;;;10.08;41.32;99026.06;5084943;28;19959;-37
2023/02/04 10:56:55;;;;;;;;;;;;;;;10.95;39.83;99018.84;5083300;28;20411;-42
2023/02/04 10:59:25;;;;;;;;;;;;;;;11.69;38.48;99024.00;5085464;28;19916;-42
2023/02/04 11:01:50;;;;;;;;;;;;;;;11.10;40.20;99015.81;5084672;28;19912;-42
2023/02/04 11:04:16;;;;;;;;;;;;;;;10.99;40.59;99018.41;5085453;28;19912;-42
2023/02/04 11:06:41;;;;;;;;;;;;;;;10.77;40.42;99008.22;5083115;28;20013;-43
2023/02/04 11:09:10;;;;;;;;;;;;;;;11.13;39.56;99009.22;5087593;28;19912;-42
2023/02/04 11:11:35;;;;;;;;;;;;;;;11.02;40.48;99000.13;5082037;28;19916;-42
2023/02/04 11:14:02;;;;;;;;;;;;;;;10.49;41.40;98998.91;5087737;28;20403;-42
2023/02/04 11:16:27;;;;;;;;;;;;;;;10.70;41.10;99002.97;5083283;28;20365;-42
2023/02/04 11:18:53;;;;;;;;;;;;;;;10.92;41.43;98995.31;5085416;28;19924;-44
2023/02/04 11:21:28;;;;;;;;;;;;;;;10.36;42.38;98993.72;5080054;28;20463;-43
2023/02/04 11:24:21;;;;;;;;;;;;;;;10.40;41.77;99002.09;5083823;28;20356;-41
2023/02/04 11:26:51;;;;;;;;;;;;;;;10.51;42.10;98996.03;5079594;28;19938;-42
2023/02/04 11:29:33;;;;;;;;;;;;;;;10.66;42.05;98996.47;5079234;28;19916;-43
2023/02/04 11:32:01;;;;;;;;;;;;;;;10.35;43.14;99000.06;5082545;28;20258;-42
2023/02/04 11:34:28;;;;;;;;;;;;;;;10.40;43.22;98996.75;5083881;28;19920;-43
2023/02/04 11:37:00;;;;;;;;;;;;;;;11.08;42.28;99006.41;5084652;28;20334;-43
2023/02/04 11:39:31;;;;;;;;;;;;;;;10.68;42.50;98997.06;5080279;28;19912;-43
2023/02/04 11:42:00;;;;;;;;;;;;;;;10.68;43.21;98978.44;5085625;28;20052;-43
2023/02/04 11:44:25;;;;;;;;;;;;;;;10.48;43.86;98989.28;5083601;28;19912;-43
2023/02/04 11:46:54;;;;;;;;;;;;;;;10.44;43.09;98977.47;5084319;28;20019;-42
2023/02/04 11:49:20;;;;;;;;;;;;;;;10.36;42.62;98977.78;5084284;28;19971;-42
2023/02/04 11:51:45;;;;;;;;;;;;;;;10.66;42.22;98977.00;5085024;28;19917;-42
2023/02/04 11:54:12;;;;;;;;;;;;;;;11.28;41.24;98985.66;5086374;28;19916;-43
2023/02/04 11:56:37;;;;;;;;;;;;;;;10.98;42.38;98982.97;5081983;28;19920;-42
2023/02/04 11:59:02;;;;;;;;;;;;;;;10.69;43.00;98964.09;5078787;28;19912;-42
2023/02/04 12:01:31;;;;;;;;;;;;;;;10.89;41.96;98969.19;5083877;28;19912;-42
2023/02/04 12:03:58;;;;;;;;;;;;;;;11.39;42.00;98967.28;5085207;28;20300;-42
2023/02/04 12:06:24;;;;;;;;;;;;;;;10.95;42.47;98976.25;5081463;28;19952;-42
2023/02/04 12:08:50;;;;;;;;;;;;;;;10.59;43.63;98958.47;5083212;28;19943;-42
2023/02/04 12:11:26;;;;;;;;;;;;;;;10.56;43.95;98958.91;5082439;28;20284;-42
2023/02/04 12:13:55;;;;;;;;;;;;;;;10.60;42.92;98961.94;5083496;28;19989;-43
2023/02/04 12:16:21;;;;;;;;;;;;;;;10.42;44.25;98963.56;5081969;28;20014;-42
2023/02/04 12:18:46;;;;;;;;;;;;;;;10.56;44.22;98959.72;5086390;28;19920;-42
2023/02/04 12:21:13;;;;;;;;;;;;;;;10.75;45.12;98952.53;5083726;28;19932;-42
2023/02/04 12:23:38;;;;;;;;;;;;;;;10.87;45.26;98967.75;5083868;28;19918;-43
2023/02/04 12:26:04;;;;;;;;;;;;;;;10.47;46.99;98965.56;5084923;28;20014;-42
2023/02/04 12:28:29;;;;;;;;;;;;;;;10.44;46.45;98960.72;5092441;28;20340;-42
2023/02/04 12:30:55;;;;;;;;;;;;;;;10.69;46.07;98957.97;5092566;28;20073;-41
2023/02/04 12:33:21;;;;;;;;;;;;;;;10.79;46.33;98960.88;5092481;28;19912;-42
2023/02/04 12:35:47;;;;;;;;;;;;;;;10.78;45.90;98967.28;5092975;28;19977;-42
2023/02/04 12:38:12;;;;;;;;;;;;;;;10.74;46.73;98971.41;5092566;28;20405;-43
2023/02/04 12:40:37;;;;;;;;;;;;;;;11.08;46.41;98977.09;5092307;28;20476;-42
2023/02/04 12:43:02;;;;;;;;;;;;;;;10.51;47.25;98978.22;5092184;28;20416;-42
2023/02/04 12:45:28;;;;;;;;;;;;;;;10.21;48.06;98972.78;5092140;28;19922;-42
2023/02/04 12:47:53;;;;;;;;;;;;;;;9.86;49.14;98980.44;5092172;28;19918;-42